UAE13U EDDF-OMDB
Flight info
| Callsign | UAE13U |
|---|---|
| Flight time | N/A |
| Altitude | 37000 |
| Route | CINDY8S CINDY Z74 LAMPU DCT NOMBO Y161 MAH DCT LATLO/N0477F390 DCT OBEDI DCT BABOL DCT NISVA DCT USALI DCT OTKOK DCT RODIP DCT BELGI DCT KETEK UT38 VESAR L620 ALSUS/N0493F410 L620 BALMA UR655 LEBOR R655 KTN R785 RASLI P559 TRF R23 NEVOL N318 TAMRO T503 KSA M321 RESAL T533 RAPMA DCT KUVSO DCT KATIT DCT PEKEM M628 RIGIL G783 ELUDA/N0506F350 G783 ASPED Q308 KIPOK Q568 IMPED |
| Aircraft | A359/H-SDE2E3GHIJ3J4J5LM1ORWXY/LB1D1 |
Departure
| Time | N/A |
|---|---|
| Airport | Frankfurt Main Airport (EDDF) |
Arrival
| Time | 2026-05-04 02:55 |
|---|---|
| Airport | Dubai International Airport (OMDB) |
| Time | Latitude | Longitude | Altitude | Speed | Heading |
|---|---|---|---|---|---|
| 2026-05-04 02:15 | 22.78486 | 53.85196 | 39813 ft | 532 kts | 92° |
| 2026-05-04 02:16 | 22.78217 | 53.93210 | 39810 ft | 532 kts | 92° |
| 2026-05-04 02:16 | 22.78473 | 54.01223 | 39814 ft | 531 kts | 79° |
| 2026-05-04 02:17 | 22.79891 | 54.09083 | 39811 ft | 531 kts | 77° |
| 2026-05-04 02:17 | 22.81494 | 54.16866 | 39809 ft | 531 kts | 76° |
| 2026-05-04 02:18 | 22.83113 | 54.24662 | 39811 ft | 531 kts | 76° |
| 2026-05-04 02:18 | 22.84719 | 54.32521 | 39808 ft | 532 kts | 77° |
| 2026-05-04 02:19 | 22.86960 | 54.40102 | 39813 ft | 528 kts | 62° |
| 2026-05-04 02:19 | 22.91104 | 54.46589 | 39815 ft | 522 kts | 44° |
| 2026-05-04 02:20 | 22.96359 | 54.51987 | 39807 ft | 521 kts | 38° |
| 2026-05-04 02:20 | 23.01873 | 54.57120 | 39807 ft | 521 kts | 38° |
| 2026-05-04 02:21 | 23.07368 | 54.62269 | 39806 ft | 521 kts | 38° |
| 2026-05-04 02:21 | 23.12814 | 54.67471 | 39809 ft | 522 kts | 39° |
| 2026-05-04 02:22 | 23.18220 | 54.72681 | 39807 ft | 522 kts | 39° |
| 2026-05-04 02:22 | 23.23678 | 54.77950 | 39808 ft | 522 kts | 39° |
| 2026-05-04 02:23 | 23.29098 | 54.83183 | 39807 ft | 522 kts | 39° |
| 2026-05-04 02:23 | 23.34522 | 54.88425 | 39808 ft | 522 kts | 39° |
| 2026-05-04 02:24 | 23.39966 | 54.93691 | 39808 ft | 523 kts | 38° |
| 2026-05-04 02:24 | 23.45397 | 54.98951 | 39810 ft | 523 kts | 38° |
| 2026-05-04 02:25 | 23.50825 | 55.04214 | 39813 ft | 523 kts | 38° |
| 2026-05-04 02:25 | 23.56292 | 55.09520 | 39813 ft | 523 kts | 38° |
| 2026-05-04 02:26 | 23.61701 | 55.14778 | 39814 ft | 523 kts | 38° |
| 2026-05-04 02:26 | 23.67132 | 55.20061 | 39816 ft | 523 kts | 38° |
| 2026-05-04 02:27 | 23.72558 | 55.25346 | 39816 ft | 524 kts | 38° |
| 2026-05-04 02:27 | 23.78016 | 55.30678 | 39818 ft | 524 kts | 39° |
| 2026-05-04 02:28 | 23.83440 | 55.36001 | 39822 ft | 524 kts | 39° |
| 2026-05-04 02:28 | 23.88830 | 55.41299 | 39824 ft | 525 kts | 39° |
| 2026-05-04 02:29 | 23.94276 | 55.46662 | 39833 ft | 525 kts | 38° |
| 2026-05-04 02:29 | 23.99675 | 55.51983 | 39839 ft | 525 kts | 38° |
| 2026-05-04 02:30 | 24.05113 | 55.57349 | 39846 ft | 525 kts | 38° |
| 2026-05-04 02:30 | 24.10512 | 55.62683 | 39853 ft | 525 kts | 38° |
| 2026-05-04 02:31 | 24.15947 | 55.68060 | 39852 ft | 526 kts | 38° |
| 2026-05-04 02:31 | 24.21380 | 55.73440 | 39854 ft | 526 kts | 38° |
| 2026-05-04 02:32 | 24.26785 | 55.78800 | 39852 ft | 526 kts | 38° |
| 2026-05-04 02:32 | 24.32212 | 55.84186 | 39855 ft | 526 kts | 38° |
| 2026-05-04 02:33 | 24.37637 | 55.89579 | 39852 ft | 526 kts | 38° |
| 2026-05-04 02:33 | 24.43060 | 55.94975 | 39855 ft | 526 kts | 38° |
| 2026-05-04 02:34 | 24.48502 | 56.00398 | 39785 ft | 523 kts | 38° |
| 2026-05-04 02:34 | 24.51159 | 56.03051 | 39181 ft | 520 kts | 38° |
| 2026-05-04 02:34 | 24.53869 | 56.05754 | 38229 ft | 526 kts | 38° |
| 2026-05-04 02:35 | 24.56615 | 56.08382 | 37181 ft | 528 kts | 33° |
| 2026-05-04 02:35 | 24.59679 | 56.10622 | 36388 ft | 523 kts | 24° |
| 2026-05-04 02:35 | 24.62987 | 56.12262 | 35966 ft | 520 kts | 14° |
| 2026-05-04 02:35 | 24.66425 | 56.13384 | 35841 ft | 517 kts | 8° |
| 2026-05-04 02:37 | 24.83279 | 56.13754 | 32239 ft | 494 kts | 338° |
| 2026-05-04 02:37 | 24.86504 | 56.12448 | 31207 ft | 491 kts | 333° |
| 2026-05-04 02:37 | 24.89601 | 56.10962 | 30154 ft | 491 kts | 332° |
| 2026-05-04 02:37 | 24.92676 | 56.09376 | 29123 ft | 488 kts | 331° |
| 2026-05-04 02:38 | 24.95749 | 56.07739 | 28307 ft | 483 kts | 332° |
| 2026-05-04 02:38 | 24.98615 | 56.05858 | 27558 ft | 473 kts | 319° |
| 2026-05-04 02:38 | 25.00817 | 56.03371 | 26984 ft | 440 kts | 308° |
| 2026-05-04 02:38 | 25.02695 | 56.00815 | 26384 ft | 414 kts | 308° |
| 2026-05-04 02:39 | 25.04456 | 55.98456 | 25860 ft | 391 kts | 309° |
| 2026-05-04 02:39 | 25.06184 | 55.96214 | 25381 ft | 370 kts | 310° |
| 2026-05-04 02:39 | 25.07824 | 55.94137 | 24936 ft | 352 kts | 310° |
| 2026-05-04 02:39 | 25.09389 | 55.92173 | 24486 ft | 336 kts | 311° |
| 2026-05-04 02:40 | 25.10933 | 55.90250 | 23848 ft | 328 kts | 311° |
| 2026-05-04 02:40 | 25.12430 | 55.88394 | 23072 ft | 325 kts | 312° |
| 2026-05-04 02:40 | 25.13929 | 55.86545 | 22231 ft | 321 kts | 312° |
| 2026-05-04 02:40 | 25.15398 | 55.84693 | 21421 ft | 316 kts | 309° |
| 2026-05-04 02:41 | 25.16624 | 55.82722 | 20680 ft | 312 kts | 303° |
| 2026-05-04 02:41 | 25.17750 | 55.80703 | 19932 ft | 308 kts | 303° |
| 2026-05-04 02:41 | 25.18852 | 55.78707 | 19202 ft | 305 kts | 303° |
| 2026-05-04 02:41 | 25.19960 | 55.76712 | 18487 ft | 301 kts | 303° |
| 2026-05-04 02:42 | 25.21038 | 55.74767 | 17754 ft | 297 kts | 303° |
| 2026-05-04 02:42 | 25.22115 | 55.72826 | 16960 ft | 294 kts | 303° |
| 2026-05-04 02:42 | 25.23169 | 55.70931 | 16176 ft | 291 kts | 303° |
| 2026-05-04 02:42 | 25.24235 | 55.69027 | 15406 ft | 289 kts | 303° |
| 2026-05-04 02:43 | 25.25276 | 55.67163 | 14658 ft | 287 kts | 303° |
| 2026-05-04 02:43 | 25.26323 | 55.65288 | 13929 ft | 284 kts | 303° |
| 2026-05-04 02:43 | 25.27353 | 55.63444 | 13159 ft | 282 kts | 302° |
| 2026-05-04 02:43 | 25.28381 | 55.61599 | 12401 ft | 279 kts | 302° |
| 2026-05-04 02:44 | 25.29259 | 55.59703 | 11619 ft | 276 kts | 287° |
| 2026-05-04 02:44 | 25.29270 | 55.57630 | 10897 ft | 275 kts | 255° |
| 2026-05-04 02:44 | 25.28246 | 55.55857 | 10225 ft | 277 kts | 223° |
| 2026-05-04 02:44 | 25.26598 | 55.54796 | 9608 ft | 277 kts | 205° |
| 2026-05-04 02:45 | 25.24697 | 55.54509 | 8832 ft | 283 kts | 176° |
| 2026-05-04 02:45 | 25.22882 | 55.55343 | 8063 ft | 291 kts | 144° |
| 2026-05-04 02:45 | 25.21618 | 55.57099 | 7423 ft | 292 kts | 120° |
| 2026-05-04 02:45 | 25.20654 | 55.59095 | 6925 ft | 292 kts | 119° |
| 2026-05-04 02:46 | 25.19693 | 55.61040 | 6332 ft | 287 kts | 121° |
| 2026-05-04 02:46 | 25.18716 | 55.62931 | 5638 ft | 284 kts | 121° |
| 2026-05-04 02:46 | 25.17713 | 55.64805 | 4940 ft | 283 kts | 122° |
| 2026-05-04 02:46 | 25.16700 | 55.66662 | 4231 ft | 281 kts | 122° |
| 2026-05-04 02:47 | 25.15688 | 55.68501 | 3537 ft | 278 kts | 122° |
| 2026-05-04 02:47 | 25.14629 | 55.70232 | 3012 ft | 268 kts | 132° |
| 2026-05-04 02:47 | 25.13270 | 55.71523 | 2725 ft | 248 kts | 152° |
| 2026-05-04 02:47 | 25.11709 | 55.72131 | 2398 ft | 230 kts | 176° |
| 2026-05-04 02:48 | 25.10217 | 55.71928 | 2101 ft | 213 kts | 211° |
| 2026-05-04 02:48 | 25.09267 | 55.70773 | 2040 ft | 204 kts | 251° |
| 2026-05-04 02:48 | 25.09194 | 55.69228 | 2020 ft | 202 kts | 279° |
| 2026-05-04 02:48 | 25.09459 | 55.67721 | 2018 ft | 201 kts | 282° |
| 2026-05-04 02:49 | 25.09739 | 55.66208 | 2010 ft | 201 kts | 281° |
| 2026-05-04 02:49 | 25.10016 | 55.64702 | 2009 ft | 201 kts | 284° |
| 2026-05-04 02:49 | 25.10512 | 55.63265 | 2015 ft | 200 kts | 296° |
| 2026-05-04 02:49 | 25.11199 | 55.61917 | 2017 ft | 200 kts | 300° |
| 2026-05-04 02:50 | 25.11915 | 55.60610 | 2013 ft | 200 kts | 301° |
| 2026-05-04 02:50 | 25.12642 | 55.59302 | 2015 ft | 198 kts | 301° |
| 2026-05-04 02:50 | 25.13337 | 55.58047 | 2008 ft | 190 kts | 300° |
| 2026-05-04 02:50 | 25.14023 | 55.56798 | 2016 ft | 188 kts | 300° |
| 2026-05-04 02:51 | 25.14701 | 55.55562 | 2015 ft | 188 kts | 301° |
| 2026-05-04 02:51 | 25.15367 | 55.54349 | 2015 ft | 180 kts | 301° |
| 2026-05-04 02:51 | 25.16009 | 55.53187 | 2017 ft | 178 kts | 301° |
| 2026-05-04 02:51 | 25.16656 | 55.52017 | 2015 ft | 177 kts | 301° |
| 2026-05-04 02:52 | 25.17292 | 55.50869 | 1997 ft | 177 kts | 301° |
| 2026-05-04 02:52 | 25.17932 | 55.49713 | 1997 ft | 176 kts | 300° |
| 2026-05-04 02:52 | 25.18569 | 55.48564 | 1882 ft | 169 kts | 300° |
| 2026-05-04 02:52 | 25.19149 | 55.47516 | 1672 ft | 155 kts | 301° |
| 2026-05-04 02:53 | 25.19692 | 55.46533 | 1452 ft | 143 kts | 301° |
| 2026-05-04 02:53 | 25.20161 | 55.45685 | 1292 ft | 134 kts | 301° |
| 2026-05-04 02:53 | 25.20644 | 55.44813 | 1119 ft | 132 kts | 300° |
| 2026-05-04 02:53 | 25.21118 | 55.43950 | 978 ft | 133 kts | 299° |
| 2026-05-04 02:54 | 25.21596 | 55.43030 | 837 ft | 142 kts | 298° |
| 2026-05-04 02:54 | 25.22117 | 55.42063 | 695 ft | 155 kts | 300° |
| 2026-05-04 02:54 | 25.22727 | 55.41017 | 460 ft | 165 kts | 300° |
| 2026-05-04 02:54 | 25.23353 | 55.39902 | 214 ft | 173 kts | 299° |
| 2026-05-04 02:55 | 25.24551 | 55.37700 | 34 ft | 151 kts | 301° |
| 2026-05-04 02:55 | 25.24966 | 55.36998 | 36 ft | 53 kts | 301° |
| 2026-05-04 02:55 | 25.25030 | 55.36698 | 32 ft | 31 kts | 270° |
| 2026-05-04 02:56 | 25.25032 | 55.36480 | 29 ft | 29 kts | 278° |
| 2026-05-04 02:56 | 25.25115 | 55.36274 | 29 ft | 31 kts | 302° |
| 2026-05-04 02:56 | 25.25200 | 55.36055 | 28 ft | 32 kts | 271° |
| 2026-05-04 02:56 | 25.25244 | 55.35854 | 28 ft | 21 kts | 300° |
| 2026-05-04 02:57 | 25.25326 | 55.35720 | 27 ft | 21 kts | 303° |
| 2026-05-04 02:57 | 25.25374 | 55.35634 | 27 ft | 10 kts | 300° |
| 2026-05-04 02:57 | 25.25405 | 55.35571 | 27 ft | 7 kts | 287° |
| 2026-05-04 02:57 | 25.25383 | 55.35535 | 27 ft | 6 kts | 214° |
| 2026-05-04 02:58 | 25.25345 | 55.35508 | 27 ft | 5 kts | 212° |
| 2026-05-04 02:58 | 25.25335 | 55.35501 | 27 ft | 0 kts | 212° |
| 2026-05-04 02:58 | 25.25330 | 55.35497 | 27 ft | 1 kts | 212° |
| 2026-05-04 02:58 | 25.25328 | 55.35496 | 27 ft | 0 kts | 212° |